Time;durP1;ratioP1;P1;durP2;ratioP2;P2;SDS_P1;SDS_P2;PMS_P1;PMS_P2;Temp;Humidity;BMP_temperature;BMP_pressure;BME280_temperature;BME280_humidity;BME280_pressure;Samples;Min_cycle;Max_cycle;Signal;HPM_P1;HPM_P2
2021/04/01 00:02:06;;;;;;;38.47;22.15;;;;;;;13.17;53.80;101849.66;4985596;28;20499;-66
2021/04/01 00:04:31;;;;;;;40.65;22.88;;;;;;;13.09;54.23;101848.69;4985919;28;20023;-66
2021/04/01 00:06:57;;;;;;;40.83;20.85;;;;;;;12.96;55.38;101854.75;4988834;28;20035;-66
2021/04/01 00:09:22;;;;;;;42.13;22.38;;;;;;;12.92;55.11;101848.53;4986573;28;20031;-66
2021/04/01 00:11:47;;;;;;;43.00;23.00;;;;;;;12.94;54.81;101843.25;4970380;28;20030;-66
2021/04/01 00:14:13;;;;;;;40.70;23.23;;;;;;;12.98;54.71;101845.06;4984654;28;20039;-65
2021/04/01 00:16:38;;;;;;;42.10;22.27;;;;;;;13.03;54.97;101840.69;4970574;28;20109;-67
2021/04/01 00:19:04;;;;;;;43.33;23.17;;;;;;;13.04;54.37;101843.34;4986153;28;20058;-66
2021/04/01 00:21:30;;;;;;;42.15;24.00;;;;;;;13.06;54.38;101841.63;4970049;28;20080;-67
2021/04/01 00:23:55;;;;;;;42.92;23.75;;;;;;;13.03;53.79;101836.28;4977415;28;20051;-66
2021/04/01 00:26:21;;;;;;;42.35;23.95;;;;;;;13.04;54.14;101840.69;4978642;28;20114;-66
2021/04/01 00:28:47;;;;;;;41.38;23.33;;;;;;;13.06;54.91;101835.41;4972457;28;20100;-66
2021/04/01 00:31:12;;;;;;;41.45;23.27;;;;;;;12.95;55.41;101837.97;4983394;28;20034;-66
2021/04/01 00:33:37;;;;;;;40.65;22.10;;;;;;;12.90;56.15;101835.25;4968771;28;20025;-67
2021/04/01 00:36:03;;;;;;;40.17;22.65;;;;;;;12.85;56.51;101829.00;4997660;28;20534;-66
2021/04/01 00:38:28;;;;;;;41.40;22.73;;;;;;;12.79;56.70;101831.59;4973581;28;20034;-67
2021/04/01 00:40:54;;;;;;;41.53;23.08;;;;;;;12.78;56.34;101829.81;4975700;28;20099;-66
2021/04/01 00:43:19;;;;;;;40.85;22.65;;;;;;;12.78;56.23;101827.16;4994240;28;20033;-66
2021/04/01 00:45:45;;;;;;;41.25;22.58;;;;;;;12.72;56.36;101830.63;4969345;28;20031;-67
2021/04/01 00:48:10;;;;;;;42.10;23.80;;;;;;;12.69;55.31;101830.59;5006242;28;20176;-66
2021/04/01 00:50:36;;;;;;;42.05;23.17;;;;;;;12.73;57.38;101827.09;4970067;28;20041;-67
2021/04/01 00:53:02;;;;;;;43.08;23.98;;;;;;;12.81;56.75;101824.53;4980116;28;20105;-67
2021/04/01 00:55:27;;;;;;;40.67;23.00;;;;;;;12.95;56.59;101815.84;4974878;28;20129;-67
2021/04/01 00:57:56;;;;;;;38.72;21.65;;;;;;;13.06;56.34;101807.09;4993079;28;20034;-67
2021/04/01 01:00:26;;;;;;;39.25;21.20;;;;;;;13.11;56.36;101817.75;4980947;28;20023;-67
2021/04/01 01:02:51;;;;;;;38.55;20.90;;;;;;;13.06;57.15;101811.50;5003683;28;20039;-66
2021/04/01 01:05:19;;;;;;;41.42;22.80;;;;;;;13.02;56.49;101813.25;4989554;28;20031;-67
2021/04/01 01:07:44;;;;;;;38.05;21.85;;;;;;;12.99;56.71;101813.22;4987897;28;20464;-66
2021/04/01 01:10:12;;;;;;;38.03;21.30;;;;;;;12.97;57.00;101814.97;4991505;28;20050;-67
2021/04/01 01:12:38;;;;;;;39.22;21.23;;;;;;;12.89;57.89;101808.72;4972021;28;20465;-66
2021/04/01 01:15:05;;;;;;;38.63;21.17;;;;;;;12.82;58.09;101809.53;4990904;28;20113;-66
2021/04/01 01:17:30;;;;;;;40.00;21.90;;;;;;;12.76;57.86;101804.16;4973431;28;20031;-66
2021/04/01 01:19:56;;;;;;;41.10;21.23;;;;;;;12.75;58.01;101797.94;4972679;28;20497;-67
2021/04/01 01:22:23;;;;;;;41.58;21.35;;;;;;;12.69;58.05;101801.41;4975221;28;20050;-66
2021/04/01 01:24:49;;;;;;;39.90;21.60;;;;;;;12.55;58.65;101801.28;5003553;28;20043;-67
2021/04/01 01:27:15;;;;;;;41.28;23.00;;;;;;;12.47;58.98;101805.59;4972842;28;20041;-66
2021/04/01 01:29:40;;;;;;;42.13;23.45;;;;;;;12.38;57.20;101810.81;5025806;28;20100;-67
2021/04/01 01:32:06;;;;;;;41.03;23.13;;;;;;;12.23;58.42;101807.94;4988814;28;20146;-67
2021/04/01 01:34:35;;;;;;;42.47;22.65;;;;;;;12.12;59.35;101807.81;4972652;28;20039;-67
2021/04/01 01:37:01;;;;;;;41.38;22.92;;;;;;;12.03;59.99;101811.22;4987803;28;20127;-66
2021/04/01 01:39:26;;;;;;;40.72;22.58;;;;;;;12.06;60.08;101803.31;4971938;28;20509;-66
2021/04/01 01:41:52;;;;;;;42.53;24.17;;;;;;;12.07;58.84;101804.19;5006490;28;20112;-67
2021/04/01 01:44:17;;;;;;;42.72;23.52;;;;;;;12.02;59.07;101799.72;4988548;28;20066;-67
2021/04/01 01:46:42;;;;;;;43.70;24.45;;;;;;;12.05;57.77;101803.31;4972870;28;20359;-65
2021/04/01 01:49:08;;;;;;;46.75;24.45;;;;;;;12.03;56.90;101795.34;5006003;28;20019;-66
2021/04/01 01:51:33;;;;;;;43.78;23.40;;;;;;;11.98;56.18;101803.19;4971785;28;20039;-67
2021/04/01 01:53:58;;;;;;;45.28;23.63;;;;;;;11.93;57.22;101796.03;4986579;28;20053;-67
2021/04/01 01:56:26;;;;;;;43.97;23.40;;;;;;;11.88;56.68;101801.25;4972402;28;20034;-66
2021/04/01 01:58:53;;;;;;;46.20;23.75;;;;;;;11.84;56.63;101805.63;4988235;28;20030;-67
2021/04/01 02:01:22;;;;;;;45.63;23.67;;;;;;;11.89;57.71;101802.16;4987925;28;20077;-66
2021/04/01 02:03:47;;;;;;;44.05;24.75;;;;;;;11.95;57.12;101804.94;4971094;28;20037;-66
2021/04/01 02:06:14;;;;;;;45.00;24.73;;;;;;;11.88;56.65;101798.59;5002337;28;20544;-66
2021/04/01 02:08:40;;;;;;;45.30;23.77;;;;;;;11.84;57.37;101808.28;4988410;28;20065;-66
2021/04/01 02:11:06;;;;;;;45.25;24.38;;;;;;;11.85;57.51;101809.16;4987171;28;20067;-67
2021/04/01 02:13:33;;;;;;;43.25;22.95;;;;;;;11.79;59.17;101799.38;4988524;28;20028;-66
2021/04/01 02:15:58;;;;;;;43.75;23.45;;;;;;;11.77;58.88;101805.53;4986655;28;20031;-66
2021/04/01 02:18:26;;;;;;;45.65;24.23;;;;;;;11.74;58.59;101803.72;4971684;28;20118;-66
2021/04/01 02:20:54;;;;;;;45.67;24.05;;;;;;;11.72;58.17;101802.78;5002811;28;20031;-64
2021/04/01 02:23:20;;;;;;;46.65;23.73;;;;;;;11.69;58.38;101803.66;4970935;28;20043;-63
2021/04/01 02:25:47;;;;;;;45.42;23.60;;;;;;;11.66;59.22;101800.97;5003509;28;20032;-63
2021/04/01 02:28:13;;;;;;;46.13;23.88;;;;;;;11.61;59.37;101800.00;4972172;28;20030;-64
2021/04/01 02:30:41;;;;;;;47.13;25.75;;;;;;;11.51;59.06;101812.19;4985077;28;20034;-65
2021/04/01 02:33:06;;;;;;;45.72;24.45;;;;;;;11.45;59.08;101800.63;4972664;28;20113;-66
2021/04/01 02:35:33;;;;;;;46.97;25.25;;;;;;;11.38;59.78;101799.63;4971353;28;20117;-66
2021/04/01 02:37:58;;;;;;;46.97;24.80;;;;;;;11.35;59.91;101802.22;4988250;28;20084;-66
2021/04/01 02:40:25;;;;;;;45.13;24.73;;;;;;;11.30;59.91;101796.88;4971866;28;20023;-66
2021/04/01 02:42:51;;;;;;;45.80;24.85;;;;;;;11.34;59.93;101796.06;4988296;28;20037;-66
2021/04/01 02:45:16;;;;;;;45.35;24.13;;;;;;;11.32;59.50;101795.13;4968266;28;20106;-66
2021/04/01 02:47:42;;;;;;;44.13;24.35;;;;;;;11.33;59.90;101799.56;4987470;28;20149;-64
2021/04/01 02:50:09;;;;;;;45.67;25.25;;;;;;;11.32;59.30;101795.13;4971527;28;20084;-65
2021/04/01 02:52:35;;;;;;;48.47;25.55;;;;;;;11.34;59.50;101800.44;4970711;28;20049;-65
2021/04/01 02:55:00;;;;;;;46.92;25.45;;;;;;;11.29;59.17;101799.50;4978073;28;20031;-66
2021/04/01 02:57:26;;;;;;;45.22;25.17;;;;;;;11.25;59.94;101797.66;4982634;28;20027;-66
2021/04/01 02:59:51;;;;;;;46.63;24.50;;;;;;;11.27;59.89;101798.56;4971602;28;20023;-65
2021/04/01 03:02:18;;;;;;;48.72;25.10;;;;;;;11.19;60.43;101798.44;5002128;28;20017;-65
2021/04/01 03:04:44;;;;;;;47.05;25.10;;;;;;;11.21;60.55;101806.41;4986417;28;20028;-65
2021/04/01 03:07:09;;;;;;;46.97;25.80;;;;;;;11.18;60.93;101804.59;4971481;28;20034;-65
2021/04/01 03:09:35;;;;;;;46.88;24.55;;;;;;;11.14;60.76;101795.72;4986869;28;20381;-66
2021/04/01 03:12:01;;;;;;;46.63;25.27;;;;;;;11.05;60.67;101799.94;4971239;28;20031;-67
2021/04/01 03:14:27;;;;;;;52.50;25.20;;;;;;;10.98;61.11;101801.63;4986506;28;20066;-66
2021/04/01 03:16:52;;;;;;;50.60;26.63;;;;;;;10.94;60.82;101803.28;4971306;28;20065;-66
2021/04/01 03:19:18;;;;;;;49.33;25.95;;;;;;;10.88;61.28;101808.47;4986935;28;20430;-65
2021/04/01 03:21:45;;;;;;;47.28;25.27;;;;;;;10.82;61.69;101801.31;4986281;28;20048;-66
2021/04/01 03:24:11;;;;;;;48.40;26.08;;;;;;;10.77;61.29;101810.91;4985994;28;20055;-65
2021/04/01 03:26:36;;;;;;;46.80;26.15;;;;;;;10.72;61.56;101809.94;4970300;28;20031;-64
2021/04/01 03:29:02;;;;;;;47.42;26.52;;;;;;;10.59;61.85;101810.56;5004448;28;20115;-64
2021/04/01 03:31:27;;;;;;;48.72;26.83;;;;;;;10.47;61.94;101816.53;4971061;28;20048;-65
2021/04/01 03:33:53;;;;;;;48.15;25.77;;;;;;;10.34;62.66;101809.16;4970853;28;20035;-67
2021/04/01 03:36:18;;;;;;;48.00;26.90;;;;;;;10.24;63.30;101818.66;4985229;28;20474;-66
2021/04/01 03:38:46;;;;;;;49.35;26.20;;;;;;;10.23;63.36;101816.84;4986129;28;20031;-65
2021/04/01 03:41:11;;;;;;;47.78;26.42;;;;;;;10.18;63.47;101829.97;4972593;28;20027;-65
2021/04/01 03:43:37;;;;;;;46.92;26.80;;;;;;;10.17;63.77;101827.31;4985964;28;20023;-65
2021/04/01 03:46:03;;;;;;;45.67;25.08;;;;;;;10.08;64.15;101836.78;4970598;28;20493;-66
2021/04/01 03:48:28;;;;;;;47.13;24.35;;;;;;;10.04;64.16;101844.63;5004048;28;20041;-66
2021/04/01 03:50:53;;;;;;;46.83;23.58;;;;;;;9.91;64.08;101835.53;4970750;28;20026;-66
2021/04/01 03:53:19;;;;;;;46.63;23.45;;;;;;;9.76;64.58;101830.78;5014095;28;20101;-66
2021/04/01 03:55:45;;;;;;;46.35;23.58;;;;;;;9.62;65.08;101827.81;4970250;28;20030;-66
2021/04/01 04:11:50;;;;;;;50.90;26.30;;;;;;;9.21;66.47;101836.47;5027534;28;20125;-63
2021/04/01 04:14:22;;;;;;;49.05;25.13;;;;;;;9.21;66.30;101846.16;5028892;28;20540;-63
2021/04/01 04:16:49;;;;;;;;;;;;;;;9.29;62.60;101848.97;5029498;28;20511;-63
2021/04/01 04:19:14;;;;;;;45.17;24.35;;;;;;;9.25;65.84;101859.47;5029449;28;19921;-63
2021/04/01 04:21:40;;;;;;;50.45;24.92;;;;;;;9.21;66.32;101865.50;5029050;28;20448;-62
2021/04/01 04:24:08;;;;;;;47.65;23.77;;;;;;;9.16;66.52;101858.31;5028018;28;20037;-63
2021/04/01 04:26:33;;;;;;;46.22;23.63;;;;;;;9.10;66.24;101852.88;5026307;28;20038;-63
2021/04/01 04:28:58;;;;;;;46.90;24.02;;;;;;;9.08;66.35;101864.28;5028825;28;20513;-62
2021/04/01 04:31:24;;;;;;;47.75;24.85;;;;;;;9.01;66.85;101859.72;5029084;28;20034;-65
2021/04/01 04:33:49;;;;;;;47.50;24.23;;;;;;;9.01;67.65;101865.00;5029116;28;20030;-63
2021/04/01 04:36:14;;;;;;;48.72;24.50;;;;;;;9.00;67.08;101863.19;5028936;28;20033;-63
2021/04/01 04:38:40;;;;;;;45.75;25.00;;;;;;;8.96;67.24;101865.72;5028405;28;20040;-63
2021/04/01 04:41:05;;;;;;;47.03;24.55;;;;;;;8.97;67.20;101863.13;4987075;28;20038;-63
2021/04/01 04:43:32;;;;;;;46.97;25.05;;;;;;;8.98;67.28;101864.00;4986493;28;20030;-63
2021/04/01 04:45:58;;;;;;;47.30;24.95;;;;;;;8.99;67.22;101864.03;4986325;28;20485;-63
2021/04/01 04:48:24;;;;;;;48.60;24.20;;;;;;;8.95;67.11;101862.16;4986413;28;20118;-63
2021/04/01 04:50:49;;;;;;;45.92;24.75;;;;;;;8.91;66.93;101868.22;4991910;28;20124;-62
2021/04/01 04:53:15;;;;;;;50.28;25.00;;;;;;;8.93;67.30;101866.53;4983627;28;20030;-66
2021/04/01 04:55:53;;;;;;;49.60;24.75;;;;;;;8.93;67.14;101858.63;5001593;28;20136;-67
2021/04/01 05:01:09;;;;;;;51.85;25.40;;;;;;;8.92;67.05;101862.09;4964944;28;20482;-66
2021/04/01 05:06:53;;;;;;;47.38;25.00;;;;;;;8.85;67.33;101862.78;4969803;28;20045;-67
2021/04/01 05:09:07;;;;;;;46.38;23.38;;;;;;;8.86;67.33;101865.44;4969759;28;20062;-66
2021/04/01 05:11:33;;;;;;;46.67;24.13;;;;;;;8.87;67.32;101863.72;4935450;28;20034;-66
2021/04/01 05:14:00;;;;;;;53.22;26.17;;;;;;;8.84;67.70;101876.78;4969464;28;20043;-70
2021/04/01 05:16:25;;;;;;;49.13;24.45;;;;;;;8.77;67.39;101870.47;4969797;28;20035;-70
2021/04/01 05:18:50;;;;;;;48.83;24.88;;;;;;;8.76;67.94;101875.72;4969302;28;20094;-70
2021/04/01 05:21:17;;;;;;;50.72;25.90;;;;;;;8.80;68.25;101878.47;4969774;28;20114;-69
2021/04/01 05:23:51;;;;;;;52.53;26.00;;;;;;;8.87;67.85;101872.53;4960883;28;20061;-68
2021/04/01 05:26:44;;;;;;;51.38;26.35;;;;;;;8.94;67.77;101876.22;4961450;28;20039;-69
2021/04/01 05:29:13;;;;;;;;;;;;;;;8.97;63.95;101878.94;4967987;28;20027;-71
2021/04/01 05:31:40;;;;;;;48.55;25.05;;;;;;;8.93;67.20;101885.00;4969455;28;19925;-69
2021/04/01 05:34:05;;;;;;;52.22;25.98;;;;;;;8.88;67.30;101889.22;4968985;28;20035;-67
2021/04/01 05:36:35;;;;;;;53.08;26.58;;;;;;;8.84;67.67;101889.97;4969849;28;20371;-67
2021/04/01 05:39:00;;;;;;;49.85;26.17;;;;;;;8.82;68.03;101894.34;4969219;28;20027;-68
2021/04/01 05:41:28;;;;;;;50.17;26.98;;;;;;;8.80;67.74;101901.31;5000809;28;20119;-68
2021/04/01 05:46:37;;;;;;;45.53;25.38;;;;;;;8.80;68.25;101898.69;4987554;28;20038;-68
2021/04/01 05:49:21;;;;;;;47.97;26.42;;;;;;;8.84;67.92;101897.88;4985807;28;20127;-68
2021/04/01 06:05:40;;;;;;;53.83;29.58;;;;;;;9.18;66.97;101907.63;4972261;28;20043;-67
2021/04/01 06:08:09;;;;;;;54.30;28.52;;;;;;;9.31;66.88;101914.13;4986561;28;20026;-68
2021/04/01 06:10:36;;;;;;;58.50;28.67;;;;;;;9.40;66.59;101909.09;5002775;28;20019;-69
2021/04/01 06:13:07;;;;;;;59.22;31.25;;;;;;;9.38;66.59;101902.91;4990734;28;20032;-66
2021/04/01 06:15:34;;;;;;;60.97;33.17;;;;;;;9.40;66.21;101898.53;4987135;28;20397;-68
2021/04/01 06:18:07;;;;;;;57.42;31.17;;;;;;;9.51;67.10;101892.63;4971841;28;20035;-68
2021/04/01 06:20:34;;;;;;;57.80;30.48;;;;;;;9.58;66.57;101903.41;4987533;28;20031;-69
2021/04/01 06:23:03;;;;;;;61.88;32.78;;;;;;;9.65;65.79;101901.81;4970833;28;20121;-68
2021/04/01 06:25:35;;;;;;;63.28;33.40;;;;;;;9.73;64.93;101902.91;4970806;28;20042;-67
2021/04/01 06:28:05;;;;;;;62.45;34.13;;;;;;;9.81;65.51;101907.47;4987253;28;20043;-68
2021/04/01 06:30:43;;;;;;;67.97;34.28;;;;;;;9.88;65.95;101912.06;4970692;28;20438;-68
2021/04/01 06:33:10;;;;;;;64.47;34.28;;;;;;;9.99;65.37;101910.56;4982747;28;20081;-67
2021/04/01 06:35:52;;;;;;;61.60;34.17;;;;;;;10.08;64.98;101907.25;4996997;28;20027;-67
2021/04/01 06:38:36;;;;;;;64.88;33.28;;;;;;;10.17;65.72;101901.28;4985863;28;20028;-67
2021/04/01 06:41:12;;;;;;;66.80;34.17;;;;;;;10.26;65.57;101906.75;4985876;28;20032;-66
2021/04/01 06:43:56;;;;;;;69.15;34.15;;;;;;;10.40;65.18;101915.06;4971314;28;20088;-67
2021/04/01 06:46:24;;;;;;;71.88;34.28;;;;;;;10.51;65.27;101917.91;4987195;28;20028;-65
2021/04/01 06:51:37;;;;;;;63.97;34.45;;;;;;;10.72;64.67;101917.50;4987095;28;20052;-66
2021/04/01 06:54:18;;;;;;;62.08;32.60;;;;;;;10.85;64.13;101926.56;4975239;28;20359;-66
2021/04/01 06:59:57;;;;;;;60.28;31.60;;;;;;;11.17;64.01;101940.44;4990350;28;20553;-66
2021/04/01 07:04:52;;;;;;;53.65;29.83;;;;;;;11.55;61.88;101939.34;5013392;28;20081;-64
2021/04/01 07:07:21;;;;;;;53.92;29.63;;;;;;;11.77;61.60;101944.16;5017295;28;20033;-65
2021/04/01 07:10:09;;;;;;;55.42;30.38;;;;;;;11.92;61.23;101950.59;5016257;28;20410;-67
2021/04/01 07:12:39;;;;;;;55.15;30.35;;;;;;;12.10;59.84;101950.91;5014539;28;20384;-67
2021/04/01 07:15:13;;;;;;;57.00;29.75;;;;;;;12.25;60.53;101960.84;5012505;28;20034;-66
2021/04/01 07:17:41;;;;;;;54.90;29.10;;;;;;;12.39;59.57;101953.09;5015453;28;20030;-66
2021/04/01 07:35:23;;;;;;;56.75;29.58;;;;;;;13.22;57.20;101963.88;4931250;29;20047;-67
2021/04/01 07:48:06;;;;;;;;;;;;;;;13.88;55.94;101963.69;4952328;29;20050;-65
2021/04/01 07:50:40;;;;;;;60.22;30.20;;;;;;;14.14;55.00;101958.56;4951145;29;20025;-65
2021/04/01 07:53:07;;;;;;;58.15;31.85;;;;;;;14.37;54.61;101953.41;4951408;29;20039;-65
2021/04/01 07:56:02;;;;;;;60.28;30.65;;;;;;;14.67;54.09;101953.59;4951200;29;20155;-64
2021/04/01 08:06:24;;;;;;;60.70;32.22;;;;;;;15.37;51.83;101973.38;4951691;29;20035;-64
2021/04/01 08:08:51;;;;;;;63.15;32.58;;;;;;;15.42;51.39;101972.50;4950465;29;20035;-63
2021/04/01 08:11:29;;;;;;;61.20;32.30;;;;;;;15.52;52.24;101979.63;4961979;28;20031;-65
2021/04/01 08:14:25;;;;;;;65.15;32.88;;;;;;;15.68;52.00;101968.97;4980884;28;20118;-63
2021/04/01 08:17:03;;;;;;;61.22;32.70;;;;;;;15.88;51.40;101973.47;4998718;28;20040;-64
2021/04/01 08:19:35;;;;;;;65.25;33.53;;;;;;;16.03;50.85;101974.38;4985525;28;20018;-63
2021/04/01 08:22:01;;;;;;;61.60;32.57;;;;;;;16.19;50.30;101988.59;4993065;28;20024;-67
2021/04/01 08:24:34;;;;;;;66.57;33.67;;;;;;;16.35;49.90;101992.13;5040753;28;20487;-67
2021/04/01 08:27:30;;;;;;;59.00;30.17;;;;;;;16.42;49.61;101984.09;4980720;28;20032;-68
2021/04/01 08:35:32;;;;;;;67.07;35.58;;;;;;;16.71;48.84;101989.38;4982893;28;20616;-67
2021/04/01 08:40:31;;;;;;;65.47;33.97;;;;;;;17.35;47.12;101988.22;4982680;28;20136;-67
2021/04/01 08:43:36;;;;;;;62.35;34.38;;;;;;;17.69;47.51;101992.47;4969512;28;20161;-68
2021/04/01 08:46:10;;;;;;;66.47;34.30;;;;;;;18.02;46.13;101990.47;4964376;28;20034;-71
2021/04/01 08:48:58;;;;;;;62.90;32.63;;;;;;;18.30;44.70;101999.13;4967787;28;20039;-68
2021/04/01 08:51:45;;;;;;;62.42;30.98;;;;;;;18.46;42.55;101997.19;4983034;28;20082;-68
2021/04/01 08:54:33;;;;;;;60.90;30.45;;;;;;;18.74;43.05;101987.06;4990413;28;20400;-69
2021/04/01 08:57:22;;;;;;;63.17;31.85;;;;;;;19.10;41.70;101994.69;4968335;28;20023;-68
2021/04/01 08:59:53;;;;;;;65.65;31.85;;;;;;;19.25;41.31;102002.53;4967774;28;20042;-67
2021/04/01 09:02:22;;;;;;;62.47;32.63;;;;;;;19.39;41.37;102002.34;4972493;28;20115;-69
2021/04/01 09:04:50;;;;;;;63.13;35.17;;;;;;;19.62;39.65;102003.81;4967471;28;20027;-70
2021/04/01 09:07:38;;;;;;;65.20;36.00;;;;;;;20.03;41.10;102013.03;4981464;28;20485;-68
2021/04/01 09:10:14;;;;;;;68.13;36.38;;;;;;;20.43;38.87;102008.75;5051931;28;20025;-68
2021/04/01 09:12:44;;;;;;;62.53;36.25;;;;;;;20.51;38.86;102002.31;4977385;28;20033;-68
2021/04/01 09:15:26;;;;;;;67.72;36.53;;;;;;;20.69;37.77;102008.28;4982879;28;20042;-68
2021/04/01 09:17:52;;;;;;;67.85;38.08;;;;;;;20.75;38.16;102008.19;4988382;28;20080;-68
2021/04/01 09:20:23;;;;;;;67.88;38.15;;;;;;;21.22;38.19;102000.91;4987793;28;20465;-68
2021/04/01 09:22:51;;;;;;;68.00;38.42;;;;;;;21.40;36.65;102006.78;4997949;28;20043;-68
2021/04/01 09:25:18;;;;;;;68.22;38.42;;;;;;;21.53;36.76;102007.44;4981157;28;20038;-68
2021/04/01 09:27:48;;;;;;;68.45;38.42;;;;;;;21.65;36.81;102011.63;4998693;28;20389;-67
2021/04/01 09:30:15;;;;;;;71.10;39.17;;;;;;;21.97;36.42;102018.91;4974934;28;20031;-68
2021/04/01 09:32:42;;;;;;;71.07;39.75;;;;;;;22.20;35.59;102021.03;4970302;28;20486;-69
2021/04/01 09:35:09;;;;;;;72.38;40.15;;;;;;;22.25;34.25;102012.81;4988378;28;20043;-69
2021/04/01 09:37:35;;;;;;;74.38;40.03;;;;;;;22.40;34.75;102020.56;4987849;28;20036;-69
2021/04/01 09:40:12;;;;;;;72.38;40.30;;;;;;;22.74;34.53;102016.03;4988706;28;20019;-69
2021/04/01 09:42:42;;;;;;;74.80;41.33;;;;;;;22.81;34.08;102018.50;4998557;28;20028;-68
2021/04/01 09:45:08;;;;;;;75.95;42.78;;;;;;;22.85;33.70;102023.81;4971071;28;20381;-67
2021/04/01 09:47:35;;;;;;;78.75;43.30;;;;;;;23.07;33.92;102032.19;5003252;28;20176;-68
2021/04/01 09:50:11;;;;;;;74.07;42.42;;;;;;;23.01;33.94;102025.16;4971551;28;20034;-67
2021/04/01 09:52:39;;;;;;;77.28;43.92;;;;;;;23.12;33.42;102024.88;4990346;28;20027;-67
2021/04/01 09:55:11;;;;;;;76.32;43.58;;;;;;;23.36;33.52;102025.03;4988028;28;20031;-67
2021/04/01 09:57:48;;;;;;;78.55;43.88;;;;;;;23.89;32.87;102030.59;4991192;28;20016;-67
2021/04/01 10:03:14;;;;;;;77.05;44.72;;;;;;;24.83;32.52;102027.34;4987388;28;20500;-68
2021/04/01 10:05:46;;;;;;;77.13;44.58;;;;;;;25.13;30.98;102029.81;4973146;28;20106;-68
2021/04/01 10:08:22;;;;;;;74.35;44.53;;;;;;;25.46;30.88;102024.09;4970964;28;20600;-67
2021/04/01 10:10:50;;;;;;;76.80;44.55;;;;;;;25.80;30.31;102021.84;4972654;28;20031;-67
2021/04/01 10:13:21;;;;;;;75.47;44.72;;;;;;;25.98;30.24;102029.19;4971201;28;20035;-68
2021/04/01 10:15:48;;;;;;;74.25;46.67;;;;;;;26.23;29.81;102030.91;4972627;28;20054;-68
2021/04/01 10:18:34;;;;;;;75.60;43.95;;;;;;;26.62;28.40;102035.53;4972750;28;20035;-68
2021/04/01 10:21:05;;;;;;;71.32;43.60;;;;;;;26.70;28.66;102029.78;4956294;28;20042;-67
2021/04/01 10:23:57;;;;;;;73.55;45.83;;;;;;;26.60;29.16;102029.28;4975737;28;20042;-67
2021/04/01 10:26:35;;;;;;;75.35;45.65;;;;;;;26.82;28.84;102025.63;4971617;28;20046;-68
2021/04/01 10:31:30;;;;;;;68.78;42.88;;;;;;;27.53;26.97;102030.47;4972468;28;21438;-68
2021/04/01 10:34:08;;;;;;;69.43;43.97;;;;;;;27.62;26.58;102035.44;4971523;28;20034;-68
2021/04/01 10:36:39;;;;;;;69.70;44.20;;;;;;;27.66;27.17;102043.38;4971556;28;20042;-68
2021/04/01 10:39:10;;;;;;;66.85;42.97;;;;;;;27.83;26.15;102038.97;4971103;28;20469;-68
2021/04/01 10:41:53;;;;;;;67.32;43.15;;;;;;;28.15;26.65;102055.50;4956386;28;20126;-68
2021/04/01 10:44:22;;;;;;;68.07;44.00;;;;;;;28.00;25.57;102047.16;4968609;28;20049;-68
2021/04/01 10:46:51;;;;;;;68.57;43.42;;;;;;;27.98;26.04;102051.78;5004645;28;20024;-68
2021/04/01 10:49:58;;;;;;;65.68;43.72;;;;;;;28.64;26.03;102054.81;4968374;28;20053;-68
2021/04/01 10:52:32;;;;;;;71.97;45.92;;;;;;;28.61;25.70;102046.81;4969319;28;20035;-68
2021/04/01 10:54:58;;;;;;;69.10;45.13;;;;;;;28.81;25.39;102048.47;4987547;28;20037;-68
2021/04/01 10:57:28;;;;;;;66.97;44.13;;;;;;;28.77;24.64;102055.91;4970797;28;20038;-67
2021/04/01 10:59:54;;;;;;;73.05;46.10;;;;;;;28.73;24.41;102048.00;4969491;28;20062;-66
2021/04/01 11:02:22;;;;;;;67.93;45.10;;;;;;;28.46;24.81;102052.06;4985996;28;20054;-67
2021/04/01 11:05:03;;;;;;;70.95;46.72;;;;;;;28.58;25.42;102060.53;4969839;28;20085;-67
2021/04/01 11:07:36;;;;;;;73.13;46.78;;;;;;;28.77;24.37;102055.03;5001525;28;20052;-66
2021/04/01 11:10:03;;;;;;;74.95;47.20;;;;;;;29.31;23.74;102069.31;5036989;28;20081;-67
2021/04/01 11:12:28;;;;;;;71.47;47.88;;;;;;;29.20;23.57;102063.59;4987156;28;20018;-66
2021/04/01 11:15:02;;;;;;;73.13;45.80;;;;;;;29.06;23.79;102071.63;4997420;28;20512;-66
2021/04/01 11:17:30;;;;;;;69.32;46.00;;;;;;;29.17;23.81;102067.34;4969499;28;20065;-66
2021/04/01 11:19:59;;;;;;;70.22;46.20;;;;;;;29.00;23.67;102065.53;4997674;28;20390;-66
2021/04/01 11:22:24;;;;;;;66.38;43.67;;;;;;;29.30;23.36;102073.03;4972092;28;20050;-67
2021/04/01 11:24:50;;;;;;;67.28;43.28;;;;;;;29.33;22.59;102067.41;5001968;28;20044;-68
2021/04/01 11:27:18;;;;;;;63.72;43.13;;;;;;;29.73;22.77;102072.41;4971394;28;20030;-67
2021/04/01 11:29:57;;;;;;;64.68;43.45;;;;;;;30.28;22.51;102071.06;4998989;28;20508;-67
2021/04/01 11:32:26;;;;;;;62.63;42.42;;;;;;;30.73;21.99;102073.84;4968223;28;20038;-67
2021/04/01 11:34:53;;;;;;;62.42;41.55;;;;;;;31.09;21.77;102076.13;4986124;28;20032;-68
2021/04/01 11:37:25;;;;;;;63.55;43.08;;;;;;;30.97;21.54;102076.00;4970905;28;20547;-67
2021/04/01 11:40:06;;;;;;;58.93;40.57;;;;;;;31.27;21.33;102078.66;4970111;28;20106;-67
2021/04/01 11:42:32;;;;;;;62.80;41.40;;;;;;;31.50;21.27;102071.72;5036728;28;20027;-68
2021/04/01 11:45:08;;;;;;;56.42;37.80;;;;;;;31.78;20.90;102086.31;4970251;28;20470;-69
2021/04/01 11:47:39;;;;;;;51.80;33.83;;;;;;;31.64;20.63;102081.75;4985057;28;20121;-72
2021/04/01 11:50:05;;;;;;;52.42;34.83;;;;;;;31.62;20.76;102079.13;5036632;28;20467;-73
2021/04/01 11:52:31;;;;;;;50.35;34.10;;;;;;;31.82;20.55;102082.41;4986334;28;20037;-69
2021/04/01 11:55:09;;;;;;;52.30;33.97;;;;;;;32.08;20.86;102083.38;4970340;28;20118;-71
2021/04/01 11:57:34;;;;;;;50.30;32.58;;;;;;;31.47;20.53;102071.91;4970533;28;20042;-69
2021/04/01 12:00:10;;;;;;;47.17;30.48;;;;;;;31.78;20.33;102075.38;4988481;28;20428;-73
2021/04/01 12:03:04;;;;;;;44.88;28.70;;;;;;;32.61;20.06;102086.16;4967410;28;20035;-69
2021/04/01 12:05:35;;;;;;;48.15;30.42;;;;;;;32.85;18.93;102079.97;4970180;28;20022;-69
2021/04/01 12:08:02;;;;;;;44.67;28.20;;;;;;;32.41;19.45;102087.53;4985530;28;20035;-68
2021/04/01 12:10:28;;;;;;;43.60;27.40;;;;;;;32.57;19.70;102075.53;4970508;28;20030;-67
2021/04/01 12:12:55;;;;;;;42.63;25.20;;;;;;;32.38;19.13;102079.53;4987932;28;20084;-67
2021/04/01 12:15:40;;;;;;;39.33;24.25;;;;;;;32.83;19.62;102082.81;4975498;28;20041;-70
2021/04/01 12:18:08;;;;;;;37.63;20.92;;;;;;;32.49;18.88;102093.38;4970380;28;20034;-69
2021/04/01 12:20:36;;;;;;;37.08;21.08;;;;;;;32.52;19.19;102092.28;4970195;28;20072;-70
2021/04/01 12:23:20;;;;;;;33.67;17.05;;;;;;;32.55;19.14;102088.44;4969936;28;20051;-69
2021/04/01 12:25:46;;;;;;;30.05;16.27;;;;;;;32.26;19.04;102086.75;4968546;28;20035;-68
2021/04/01 12:28:22;;;;;;;30.63;14.63;;;;;;;32.55;19.63;102086.59;5019916;28;20017;-69
2021/04/01 12:30:51;;;;;;;27.05;11.48;;;;;;;32.69;18.16;102084.78;4970274;28;20052;-69
2021/04/01 12:33:23;;;;;;;26.08;9.93;;;;;;;32.29;19.11;102091.13;4970239;28;20027;-68
2021/04/01 12:35:52;;;;;;;25.52;8.25;;;;;;;32.14;18.32;102093.94;4969870;28;20037;-69
2021/04/01 12:38:31;;;;;;;23.95;8.27;;;;;;;32.51;18.50;102085.06;5002921;28;20026;-69
2021/04/01 12:41:09;;;;;;;24.50;7.90;;;;;;;33.01;17.66;102085.22;4981771;28;20015;-68
2021/04/01 12:43:39;;;;;;;22.83;7.95;;;;;;;32.99;16.98;102079.84;5000654;28;20023;-67
2021/04/01 12:46:06;;;;;;;22.02;7.53;;;;;;;33.69;16.63;102089.38;4985964;28;20392;-72
2021/04/01 12:48:41;;;;;;;23.30;7.45;;;;;;;33.90;16.72;102085.19;4985209;28;20023;-67
2021/04/01 12:51:09;;;;;;;21.58;7.53;;;;;;;33.49;16.50;102085.38;4984061;28;20062;-69
2021/04/01 12:53:35;;;;;;;22.20;7.10;;;;;;;32.93;17.20;102079.44;5034801;28;20033;-68
2021/04/01 12:56:21;;;;;;;20.92;7.20;;;;;;;32.60;17.57;102089.88;4985288;28;20121;-68